createdAt,value
2022-12-19T00:02:04.220Z,100586.60
2022-12-19T00:05:13.524Z,100589.80
2022-12-19T00:08:21.457Z,100593.60
2022-12-19T00:11:30.811Z,100594.60
2022-12-19T00:14:39.244Z,100599.00
2022-12-19T00:17:47.100Z,100591.20
2022-12-19T00:21:04.415Z,100590.40
2022-12-19T00:24:21.608Z,100590.00
2022-12-19T00:27:30.111Z,100596.00
2022-12-19T00:30:38.230Z,100590.40
2022-12-19T00:33:48.059Z,100596.00
2022-12-19T00:36:56.087Z,100591.60
2022-12-19T00:40:04.035Z,100590.60
2022-12-19T00:43:11.887Z,100582.80
2022-12-19T00:46:20.942Z,100583.20
2022-12-19T00:49:28.773Z,100584.00
2022-12-19T00:52:36.591Z,100581.40
2022-12-19T00:55:44.912Z,100584.20
2022-12-19T00:58:53.886Z,100582.00
2022-12-19T01:02:08.473Z,100579.80
2022-12-19T01:05:19.024Z,100576.40
2022-12-19T01:08:34.581Z,100573.60
2022-12-19T01:12:06.554Z,100572.00
2022-12-19T01:15:25.393Z,100563.60
2022-12-19T01:18:33.220Z,100553.60
2022-12-19T01:21:42.032Z,100551.20
2022-12-19T01:24:49.483Z,100545.60
2022-12-19T01:28:00.546Z,100544.80
2022-12-19T01:31:11.426Z,100533.00
2022-12-19T01:34:21.660Z,100529.00
2022-12-19T01:37:29.552Z,100529.00
2022-12-19T01:40:38.181Z,100523.60
2022-12-19T01:44:06.459Z,100529.20
2022-12-19T01:47:16.469Z,100528.20
2022-12-19T01:50:33.509Z,100528.20
2022-12-19T01:53:49.440Z,100535.20
2022-12-19T01:57:02.699Z,100545.00
2022-12-19T02:00:14.372Z,100543.40
2022-12-19T02:03:30.531Z,100538.20
2022-12-19T02:06:40.774Z,100533.60
2022-12-19T02:09:57.041Z,100542.00
2022-12-19T02:13:06.503Z,100550.40
2022-12-19T02:16:29.029Z,100547.40
2022-12-19T02:20:39.524Z,100547.80
2022-12-19T02:24:39.901Z,100544.60
2022-12-19T02:28:23.013Z,100553.20
2022-12-19T02:31:36.576Z,100564.00
2022-12-19T02:34:59.349Z,100559.80
2022-12-19T02:38:21.541Z,100558.80
2022-12-19T02:41:43.435Z,100554.00
2022-12-19T02:44:55.807Z,100557.60
2022-12-19T02:48:08.977Z,100554.80
2022-12-19T02:51:28.364Z,100559.60
2022-12-19T02:54:37.958Z,100550.40
2022-12-19T02:58:23.196Z,100561.00
2022-12-19T03:01:47.718Z,100560.20
2022-12-19T03:05:10.032Z,100554.80
2022-12-19T03:08:29.746Z,100557.80
2022-12-19T03:11:43.274Z,100546.80
2022-12-19T03:14:53.545Z,100538.40
2022-12-19T03:18:05.304Z,100533.20
2022-12-19T03:21:21.855Z,100525.20
2022-12-19T03:24:29.999Z,100515.60
2022-12-19T03:27:43.193Z,100511.20
2022-12-19T03:30:53.057Z,100511.00
2022-12-19T03:34:06.577Z,100509.00
2022-12-19T03:37:22.311Z,100504.60
2022-12-19T03:40:34.960Z,100508.40
2022-12-19T03:43:46.613Z,100504.40
2022-12-19T03:47:04.014Z,100512.00
2022-12-19T03:50:14.496Z,100518.60
2022-12-19T03:53:38.354Z,100516.80
2022-12-19T03:56:57.690Z,100518.80
2022-12-19T04:00:11.721Z,100528.20
2022-12-19T04:03:21.624Z,100527.60
2022-12-19T04:06:34.674Z,100527.00
2022-12-19T04:09:46.186Z,100523.20
2022-12-19T04:13:01.125Z,100524.80
2022-12-19T04:16:19.935Z,100517.60
2022-12-19T04:19:41.088Z,100520.40
2022-12-19T04:22:59.974Z,100527.20
2022-12-19T04:26:11.577Z,100525.20
2022-12-19T04:29:21.747Z,100527.20
2022-12-19T04:32:32.104Z,100527.60
2022-12-19T04:35:40.663Z,100526.80
2022-12-19T04:38:48.804Z,100523.40
2022-12-19T04:41:56.567Z,100515.40
2022-12-19T04:45:05.182Z,100512.40
2022-12-19T04:48:13.790Z,100516.80
2022-12-19T04:51:22.007Z,100532.80
2022-12-19T04:54:29.865Z,100534.80
2022-12-19T04:57:38.604Z,100526.60
2022-12-19T05:00:46.516Z,100530.60
2022-12-19T05:03:57.560Z,100533.60
2022-12-19T05:07:07.952Z,100534.60
2022-12-19T05:10:16.351Z,100531.80
2022-12-19T05:13:24.268Z,100540.40
2022-12-19T05:16:32.623Z,100544.40
2022-12-19T05:19:40.547Z,100534.40
2022-12-19T05:22:50.535Z,100531.00
2022-12-19T05:26:01.454Z,100533.00
2022-12-19T05:29:10.357Z,100526.60
2022-12-19T05:32:19.013Z,100529.20
2022-12-19T05:35:26.940Z,100522.60
2022-12-19T05:38:36.421Z,100526.40
2022-12-19T05:41:48.846Z,100535.80
2022-12-19T05:44:57.045Z,100532.20
2022-12-19T05:48:05.635Z,100526.60
2022-12-19T05:51:17.171Z,100525.80
2022-12-19T05:54:26.341Z,100527.80
2022-12-19T05:57:35.300Z,100528.40
2022-12-19T06:00:43.992Z,100529.20
2022-12-19T06:03:52.288Z,100527.00
2022-12-19T06:07:00.272Z,100530.40
2022-12-19T06:10:10.202Z,100537.00
2022-12-19T06:13:23.521Z,100530.60
2022-12-19T06:16:32.868Z,100525.40
2022-12-19T06:19:47.362Z,100530.40
2022-12-19T06:22:56.020Z,100536.20
2022-12-19T06:26:06.635Z,100534.20
2022-12-19T06:29:14.357Z,100532.60
2022-12-19T06:32:22.562Z,100528.60
2022-12-19T06:35:30.957Z,100532.20
2022-12-19T06:38:40.001Z,100537.60
2022-12-19T06:42:05.523Z,100536.40
2022-12-19T06:45:14.789Z,100534.60
2022-12-19T06:48:22.967Z,100526.00
2022-12-19T06:51:31.596Z,100524.20
2022-12-19T06:54:39.815Z,100526.60
2022-12-19T06:57:48.319Z,100536.40
2022-12-19T07:00:57.698Z,100532.00
2022-12-19T07:04:06.819Z,100533.40
2022-12-19T07:07:14.921Z,100544.00
2022-12-19T07:10:23.108Z,100548.00
2022-12-19T07:13:31.165Z,100546.00
2022-12-19T07:16:39.575Z,100542.00
2022-12-19T07:19:48.105Z,100531.20
2022-12-19T07:22:56.236Z,100527.60
2022-12-19T07:26:05.523Z,100526.00
2022-12-19T07:29:15.478Z,100528.80
2022-12-19T07:32:23.991Z,100534.80
2022-12-19T07:35:32.102Z,100526.20
2022-12-19T07:38:43.177Z,100520.80
2022-12-19T07:41:51.685Z,100523.80
2022-12-19T07:45:00.613Z,100537.60
2022-12-19T07:48:11.554Z,100554.00
2022-12-19T07:51:19.775Z,100558.80
2022-12-19T07:54:27.853Z,100558.80
2022-12-19T07:57:36.017Z,100557.80
2022-12-19T08:00:45.458Z,100567.80
2022-12-19T08:03:58.340Z,100572.60
2022-12-19T08:07:07.808Z,100573.40
2022-12-19T08:10:16.486Z,100580.60
2022-12-19T08:13:24.766Z,100577.00
2022-12-19T08:16:43.898Z,100571.80
2022-12-19T08:19:57.911Z,100576.20
2022-12-19T08:23:06.029Z,100563.60
2022-12-19T08:26:17.793Z,100562.60
2022-12-19T08:29:26.041Z,100550.00
2022-12-19T08:32:33.869Z,100551.80
2022-12-19T08:35:42.217Z,100549.80
2022-12-19T08:38:52.486Z,100545.40
2022-12-19T08:42:00.856Z,100536.80
2022-12-19T08:45:11.232Z,100547.40
2022-12-19T08:48:19.892Z,100548.60
2022-12-19T08:51:29.172Z,100548.00
2022-12-19T08:54:37.481Z,100554.40
2022-12-19T08:57:45.605Z,100551.80
2022-12-19T09:00:57.532Z,100547.40
2022-12-19T09:05:52.046Z,100539.60
2022-12-19T09:07:38.574Z,100529.00
2022-12-19T09:10:47.376Z,100538.40
2022-12-19T09:13:58.882Z,100562.20
2022-12-19T09:17:08.260Z,100566.00
2022-12-19T09:20:22.834Z,100567.80
2022-12-19T09:23:32.979Z,100563.00
2022-12-19T09:26:42.303Z,100554.40
2022-12-19T09:29:50.574Z,100557.00
2022-12-19T09:32:58.729Z,100551.00
2022-12-19T09:36:09.839Z,100532.00
2022-12-19T09:39:19.486Z,100535.80
2022-12-19T09:42:49.063Z,100541.60
2022-12-19T09:46:13.349Z,100536.40
2022-12-19T09:49:26.324Z,100518.80
2022-12-19T09:52:42.849Z,100514.00
2022-12-19T09:55:54.505Z,100508.60
2022-12-19T09:59:14.412Z,100497.20
2022-12-19T10:02:46.402Z,100501.40
2022-12-19T10:07:11.504Z,100493.40
2022-12-19T10:11:26.564Z,100494.80
2022-12-19T10:13:27.434Z,100503.00
2022-12-19T10:17:23.698Z,100501.60
2022-12-19T10:20:38.636Z,100491.20
2022-12-19T10:24:34.807Z,100484.80
2022-12-19T10:27:58.539Z,100487.20
2022-12-19T10:31:22.384Z,100493.60
2022-12-19T10:34:38.698Z,100483.80
2022-12-19T10:38:06.631Z,100482.60
2022-12-19T10:41:22.290Z,100481.40
2022-12-19T10:44:35.227Z,100478.20
2022-12-19T10:47:43.597Z,100469.60
2022-12-19T10:50:51.722Z,100469.80
2022-12-19T10:54:01.448Z,100469.20
2022-12-19T10:57:24.803Z,100469.80
2022-12-19T11:00:33.242Z,100465.20
2022-12-19T11:03:44.079Z,100468.00
2022-12-19T11:07:08.263Z,100461.60
2022-12-19T11:20:34.544Z,100466.20
2022-12-19T11:29:24.868Z,100460.80
2022-12-19T11:29:54.186Z,100450.40
2022-12-19T11:30:36.678Z,100432.80
2022-12-19T11:32:41.225Z,100425.80
2022-12-19T11:35:54.863Z,100429.20
2022-12-19T11:39:05.023Z,100420.80
2022-12-19T11:42:47.705Z,100410.00
2022-12-19T11:46:05.413Z,100416.60
2022-12-19T11:49:34.434Z,100415.40
2022-12-19T11:53:16.589Z,100411.00
2022-12-19T11:56:25.390Z,100399.60
2022-12-19T11:59:37.907Z,100399.20
2022-12-19T12:03:29.941Z,100401.00
2022-12-19T12:06:47.697Z,100393.00
2022-12-19T12:16:09.450Z,100396.20
2022-12-19T12:21:06.620Z,100382.60
2022-12-19T12:30:09.077Z,100385.80
2022-12-19T12:31:05.337Z,100382.60
2022-12-19T12:32:04.346Z,100369.20
2022-12-19T12:35:16.297Z,100382.60
2022-12-19T12:35:30.765Z,100389.80
2022-12-19T12:40:43.857Z,100396.80
2022-12-19T12:44:10.738Z,100395.00
2022-12-19T12:47:24.657Z,100392.80
2022-12-19T12:50:35.918Z,100380.80
2022-12-19T12:53:48.011Z,100371.20
2022-12-19T12:56:57.568Z,100366.40
2022-12-19T13:00:24.069Z,100363.20
2022-12-19T13:03:33.304Z,100348.60
2022-12-19T13:07:01.734Z,100342.20
2022-12-19T13:10:26.100Z,100346.40
2022-12-19T13:13:58.419Z,100349.40
2022-12-19T13:17:08.281Z,100349.00
2022-12-19T13:20:45.173Z,100337.60
2022-12-19T13:24:16.040Z,100339.00
2022-12-19T13:27:50.982Z,100341.00
2022-12-19T13:31:23.436Z,100340.80
2022-12-19T13:34:44.023Z,100335.00
2022-12-19T13:39:57.352Z,100325.20
2022-12-19T13:42:07.794Z,100334.40
2022-12-19T13:45:25.326Z,100340.60
2022-12-19T13:48:41.790Z,100342.60
2022-12-19T13:51:57.820Z,100334.80
2022-12-19T13:55:16.277Z,100346.80
2022-12-19T13:58:30.984Z,100353.80
2022-12-19T14:01:41.845Z,100349.60
2022-12-19T14:04:50.410Z,100346.00
2022-12-19T14:07:59.339Z,100349.00
2022-12-19T14:11:42.038Z,100338.80
2022-12-19T14:15:14.080Z,100336.20
2022-12-19T14:18:42.199Z,100335.60
2022-12-19T14:22:04.927Z,100330.00
2022-12-19T14:28:14.998Z,100325.60
2022-12-19T14:28:56.679Z,100325.60
2022-12-19T14:33:39.595Z,100335.60
2022-12-19T14:36:10.401Z,100332.00
2022-12-19T14:39:25.330Z,100318.40
2022-12-19T14:43:58.048Z,100322.60
2022-12-19T14:54:04.973Z,100318.60
2022-12-19T14:54:05.397Z,100321.40
2022-12-19T14:54:24.404Z,100319.00
2022-12-19T14:57:04.260Z,100327.20
2022-12-19T15:04:51.788Z,100328.40
2022-12-19T15:07:31.114Z,100326.80
2022-12-19T15:11:06.608Z,100326.00
2022-12-19T15:14:56.919Z,100319.80
2022-12-19T15:17:50.965Z,100328.60
2022-12-19T15:21:01.729Z,100327.40
2022-12-19T15:24:11.627Z,100333.20
2022-12-19T15:27:22.042Z,100340.20
2022-12-19T15:30:42.009Z,100340.20
2022-12-19T15:34:33.726Z,100333.00
2022-12-19T15:37:21.684Z,100336.00
2022-12-19T15:40:29.894Z,100325.60
2022-12-19T15:44:03.010Z,100311.80
2022-12-19T15:47:18.599Z,100309.60
2022-12-19T15:50:30.010Z,100303.20
2022-12-19T15:53:41.169Z,100296.60
2022-12-19T15:56:54.945Z,100300.60
2022-12-19T16:00:14.177Z,100306.20
2022-12-19T16:03:25.090Z,100305.80
2022-12-19T16:06:36.915Z,100310.40
2022-12-19T16:09:45.151Z,100304.20
2022-12-19T16:12:58.319Z,100306.40
2022-12-19T16:16:14.949Z,100305.40
2022-12-19T16:19:32.724Z,100300.40
2022-12-19T16:22:41.847Z,100296.00
2022-12-19T16:25:52.580Z,100294.00
2022-12-19T16:29:02.586Z,100279.40
2022-12-19T16:32:14.049Z,100282.00
2022-12-19T16:35:55.031Z,100272.80
2022-12-19T16:38:53.464Z,100274.20
2022-12-19T16:42:01.475Z,100281.60
2022-12-19T16:45:20.099Z,100287.20
2022-12-19T16:48:31.062Z,100289.60
2022-12-19T16:51:39.936Z,100290.40
2022-12-19T16:54:51.292Z,100295.20
2022-12-19T16:58:02.319Z,100303.00
2022-12-19T17:01:14.800Z,100300.20
2022-12-19T17:04:26.454Z,100298.60
2022-12-19T17:07:36.703Z,100296.80
2022-12-19T17:10:47.692Z,100303.40
2022-12-19T17:14:02.717Z,100302.60
2022-12-19T17:17:15.625Z,100313.80
2022-12-19T17:20:26.935Z,100311.80
2022-12-19T17:23:35.237Z,100312.40
2022-12-19T17:26:43.241Z,100307.60
2022-12-19T17:29:51.315Z,100310.00
2022-12-19T17:33:00.349Z,100309.00
2022-12-19T17:36:16.185Z,100311.00
2022-12-19T17:39:29.318Z,100312.00
2022-12-19T17:42:38.203Z,100321.00
2022-12-19T17:45:46.209Z,100318.20
2022-12-19T17:48:55.977Z,100326.80
2022-12-19T17:52:02.781Z,100330.80
2022-12-19T17:55:26.940Z,100336.40
2022-12-19T17:58:35.218Z,100333.00
2022-12-19T18:01:46.745Z,100332.40
2022-12-19T18:04:55.876Z,100326.80
2022-12-19T18:08:05.631Z,100323.80
2022-12-19T18:11:20.676Z,100327.20
2022-12-19T18:14:31.447Z,100323.20
2022-12-19T18:17:48.980Z,100322.80
2022-12-19T18:20:59.272Z,100321.20
2022-12-19T18:24:12.279Z,100317.40
2022-12-19T18:27:20.688Z,100311.80
2022-12-19T18:30:29.491Z,100303.00
2022-12-19T18:33:43.450Z,100300.60
2022-12-19T18:36:53.882Z,100281.60
2022-12-19T18:40:02.222Z,100274.60
2022-12-19T18:43:13.450Z,100274.60
2022-12-19T18:46:27.080Z,100265.60
2022-12-19T18:49:40.389Z,100259.80
2022-12-19T18:52:51.102Z,100259.60
2022-12-19T18:55:59.326Z,100265.00
2022-12-19T18:59:14.239Z,100262.00
2022-12-19T19:02:30.330Z,100249.80
2022-12-19T19:05:42.396Z,100247.80
2022-12-19T19:08:52.398Z,100247.40
2022-12-19T19:12:00.773Z,100245.60
2022-12-19T19:15:11.110Z,100248.80
2022-12-19T19:18:22.405Z,100240.80
2022-12-19T19:21:36.009Z,100234.40
2022-12-19T19:24:48.055Z,100223.00
2022-12-19T19:28:00.299Z,100226.60
2022-12-19T19:31:12.575Z,100227.60
2022-12-19T19:34:29.441Z,100232.80
2022-12-19T19:37:38.581Z,100229.00
2022-12-19T19:40:46.665Z,100234.20
2022-12-19T19:43:54.793Z,100223.00
2022-12-19T19:47:03.333Z,100220.40
2022-12-19T19:50:15.416Z,100231.00
2022-12-19T19:53:23.195Z,100231.20
2022-12-19T19:56:32.635Z,100236.20
2022-12-19T19:59:41.097Z,100237.80
2022-12-19T20:02:49.151Z,100246.60
2022-12-19T20:06:04.071Z,100250.60
2022-12-19T20:09:11.958Z,100251.40
2022-12-19T20:12:20.375Z,100242.00
2022-12-19T20:15:28.532Z,100242.20
2022-12-19T20:18:40.037Z,100238.00
2022-12-19T20:21:48.581Z,100233.80
2022-12-19T20:24:56.620Z,100229.80
2022-12-19T20:28:04.593Z,100232.40
2022-12-19T20:31:14.284Z,100237.40
2022-12-19T20:34:21.139Z,100239.20
2022-12-19T20:37:29.137Z,100234.40
2022-12-19T20:40:37.084Z,100232.80
2022-12-19T20:43:45.260Z,100228.40
2022-12-19T20:46:53.275Z,100228.60
2022-12-19T20:50:01.181Z,100223.80
2022-12-19T20:53:09.622Z,100228.40
2022-12-19T20:56:20.558Z,100225.20
2022-12-19T20:59:28.377Z,100222.20
2022-12-19T21:02:52.993Z,100227.60
2022-12-19T21:06:05.501Z,100225.00
2022-12-19T21:09:13.512Z,100224.80
2022-12-19T21:12:21.556Z,100217.40
2022-12-19T21:15:29.414Z,100214.20
2022-12-19T21:18:38.632Z,100213.20
2022-12-19T21:21:46.551Z,100213.40
2022-12-19T21:24:54.377Z,100214.00
2022-12-19T21:28:02.738Z,100217.20
2022-12-19T21:31:18.431Z,100212.20
2022-12-19T21:34:26.836Z,100217.80
2022-12-19T21:37:41.622Z,100226.80
2022-12-19T21:40:51.715Z,100225.00
2022-12-19T21:44:01.206Z,100225.40
2022-12-19T21:47:10.201Z,100213.00
2022-12-19T21:50:19.154Z,100206.60
2022-12-19T21:53:27.147Z,100202.40
2022-12-19T21:56:37.060Z,100203.80
2022-12-19T21:59:45.510Z,100198.80
2022-12-19T22:03:15.674Z,100188.40
2022-12-19T22:06:28.255Z,100181.40
2022-12-19T22:09:36.591Z,100173.60
2022-12-19T22:12:44.290Z,100170.20
2022-12-19T22:15:52.269Z,100170.40
2022-12-19T22:19:01.615Z,100165.00
2022-12-19T22:22:10.673Z,100166.40
2022-12-19T22:25:18.989Z,100159.80
2022-12-19T22:28:29.873Z,100155.20
2022-12-19T22:31:39.620Z,100157.00
2022-12-19T22:34:47.976Z,100151.60
2022-12-19T22:37:58.325Z,100153.40
2022-12-19T22:41:09.264Z,100149.60
2022-12-19T22:44:23.136Z,100148.20
2022-12-19T22:47:31.611Z,100147.80
2022-12-19T22:50:45.287Z,100141.40
2022-12-19T22:53:53.978Z,100118.80
2022-12-19T22:57:01.780Z,100111.60
2022-12-19T23:00:15.563Z,100118.40
2022-12-19T23:03:23.660Z,100123.20
2022-12-19T23:06:35.676Z,100130.20
2022-12-19T23:09:43.843Z,100126.20
2022-12-19T23:12:51.827Z,100125.20
2022-12-19T23:16:00.736Z,100126.40
2022-12-19T23:19:10.626Z,100129.60
2022-12-19T23:22:16.794Z,100133.40
2022-12-19T23:25:26.211Z,100122.80
2022-12-19T23:28:34.582Z,100114.80
2022-12-19T23:31:45.194Z,100108.20
2022-12-19T23:34:53.106Z,100103.20
2022-12-19T23:38:00.830Z,100097.00
2022-12-19T23:41:13.484Z,100100.00
2022-12-19T23:44:21.743Z,100104.40
2022-12-19T23:47:29.567Z,100100.40
2022-12-19T23:50:37.580Z,100104.40
2022-12-19T23:53:46.040Z,100116.40
2022-12-19T23:56:54.278Z,100124.80
